sim
Sign-in with your pilot id or email,
or register
Callsign
Passwort

Schedule Details

Flight Number: OEO6735
Departure: Chicago O'Hare International Airport (KORD) at 21:55
Arrival: Munich Airport (EDDM) at 06:55

Weather Information
Getting current METAR information for KORD 240451Z 22004KT 10SM BKN250 18/12 A2997 RMK AO2 SLP146 T01780122
Getting current METAR information for EDDM 240450Z VRB01KT CAVOK 08/08 Q1009 NOSIG

Schedule Frequency

Route Map